createdAt,value
2022-12-02T00:01:35.488Z,2.41
2022-12-02T00:04:19.721Z,2.41
2022-12-02T00:06:51.412Z,2.40
2022-12-02T00:09:29.732Z,2.39
2022-12-02T00:12:01.319Z,2.38
2022-12-02T00:14:36.061Z,2.39
2022-12-02T00:17:06.719Z,2.37
2022-12-02T00:19:37.483Z,2.35
2022-12-02T00:22:08.051Z,2.35
2022-12-02T00:24:38.861Z,2.31
2022-12-02T00:27:09.551Z,2.37
2022-12-02T00:29:41.143Z,2.38
2022-12-02T00:32:11.892Z,2.40
2022-12-02T00:34:42.769Z,2.42
2022-12-02T00:37:15.967Z,2.43
2022-12-02T00:39:46.661Z,2.46
2022-12-02T00:42:17.307Z,2.47
2022-12-02T00:45:06.176Z,2.48
2022-12-02T00:47:36.892Z,2.50
2022-12-02T00:50:09.458Z,2.52
2022-12-02T00:52:40.344Z,2.54
2022-12-02T00:55:12.214Z,2.56
2022-12-02T00:57:42.957Z,2.57
2022-12-02T01:00:15.643Z,2.56
2022-12-02T01:02:47.710Z,2.55
2022-12-02T01:05:18.548Z,2.57
2022-12-02T01:07:49.558Z,2.58
2022-12-02T01:10:20.997Z,2.58
2022-12-02T01:12:51.986Z,2.59
2022-12-02T01:15:24.036Z,2.57
2022-12-02T01:17:54.705Z,2.58
2022-12-02T01:20:25.461Z,2.58
2022-12-02T01:22:56.190Z,2.56
2022-12-02T01:25:27.277Z,2.55
2022-12-02T01:27:58.190Z,2.54
2022-12-02T01:30:29.962Z,2.52
2022-12-02T01:33:00.694Z,2.50
2022-12-02T01:35:31.363Z,2.47
2022-12-02T01:38:02.216Z,2.39
2022-12-02T01:40:34.161Z,2.45
2022-12-02T01:43:05.780Z,2.47
2022-12-02T01:45:37.073Z,2.49
2022-12-02T01:48:08.146Z,2.52
2022-12-02T01:50:38.971Z,2.53
2022-12-02T01:53:09.963Z,2.54
2022-12-02T01:55:40.917Z,2.57
2022-12-02T01:58:14.898Z,2.58
2022-12-02T02:00:45.619Z,2.58
2022-12-02T02:03:16.411Z,2.56
2022-12-02T02:05:47.858Z,2.58
2022-12-02T02:08:19.474Z,2.60
2022-12-02T02:10:50.560Z,2.61
2022-12-02T02:13:21.407Z,2.61
2022-12-02T02:15:52.258Z,2.58
2022-12-02T02:18:23.028Z,2.62
2022-12-02T02:20:56.686Z,2.60
2022-12-02T02:23:26.632Z,2.60
2022-12-02T02:25:59.714Z,2.62
2022-12-02T02:28:36.134Z,2.62
2022-12-02T02:31:07.861Z,2.59
2022-12-02T02:33:43.423Z,2.55
2022-12-02T02:36:14.557Z,2.53
2022-12-02T02:38:46.289Z,2.53
2022-12-02T02:41:17.343Z,2.54
2022-12-02T02:43:48.936Z,2.55
2022-12-02T02:46:20.037Z,2.57
2022-12-02T02:48:51.707Z,2.57
2022-12-02T02:51:22.650Z,2.57
2022-12-02T02:53:53.750Z,2.56
2022-12-02T02:56:24.606Z,2.58
2022-12-02T02:58:56.229Z,2.56
2022-12-02T03:01:30.860Z,2.56
2022-12-02T03:04:04.126Z,2.57
2022-12-02T03:06:34.909Z,2.57
2022-12-02T03:09:07.706Z,2.59
2022-12-02T03:11:40.980Z,2.56
2022-12-02T03:14:15.923Z,2.54
2022-12-02T03:16:47.766Z,2.57
2022-12-02T03:19:19.870Z,2.55
2022-12-02T03:21:50.909Z,2.61
2022-12-02T03:24:21.747Z,2.61
2022-12-02T03:26:53.142Z,2.63
2022-12-02T03:29:24.022Z,2.64
2022-12-02T03:31:54.688Z,2.67
2022-12-02T03:34:25.697Z,2.70
2022-12-02T03:36:59.131Z,2.66
2022-12-02T03:39:30.133Z,2.65
2022-12-02T03:42:01.014Z,2.62
2022-12-02T03:44:31.925Z,2.63
2022-12-02T03:47:04.360Z,2.65
2022-12-02T03:49:37.496Z,2.68
2022-12-02T03:52:08.808Z,2.68
2022-12-02T03:54:40.094Z,2.62
2022-12-02T03:57:11.298Z,2.57
2022-12-02T03:59:42.381Z,2.56
2022-12-02T04:02:13.178Z,2.51
2022-12-02T04:04:44.068Z,2.57
2022-12-02T04:07:14.872Z,2.60
2022-12-02T04:09:45.680Z,2.62
2022-12-02T04:12:16.482Z,2.59
2022-12-02T04:14:47.201Z,2.56
2022-12-02T04:17:17.822Z,2.53
2022-12-02T04:19:49.163Z,2.51
2022-12-02T04:22:19.831Z,2.51
2022-12-02T04:24:50.807Z,2.51
2022-12-02T04:27:21.568Z,2.51
2022-12-02T04:29:52.474Z,2.51
2022-12-02T04:32:24.024Z,2.53
2022-12-02T04:34:54.866Z,2.55
2022-12-02T04:37:25.601Z,2.56
2022-12-02T04:39:56.294Z,2.57
2022-12-02T04:42:27.021Z,2.55
2022-12-02T04:44:57.765Z,2.53
2022-12-02T04:47:28.436Z,2.53
2022-12-02T04:49:59.235Z,2.52
2022-12-02T04:52:29.984Z,2.51
2022-12-02T04:55:00.656Z,2.51
2022-12-02T04:57:32.031Z,2.50
2022-12-02T05:00:07.212Z,2.52
2022-12-02T05:02:37.874Z,2.53
2022-12-02T05:05:10.842Z,2.52
2022-12-02T05:07:41.515Z,2.52
2022-12-02T05:10:13.353Z,2.52
2022-12-02T05:12:44.018Z,2.50
2022-12-02T05:15:15.297Z,2.48
2022-12-02T05:17:45.867Z,2.46
2022-12-02T05:20:17.286Z,2.40
2022-12-02T05:22:48.039Z,2.32
2022-12-02T05:25:19.181Z,2.26
2022-12-02T05:27:49.903Z,2.23
2022-12-02T05:30:20.651Z,2.15
2022-12-02T05:32:54.472Z,2.09
2022-12-02T05:35:25.162Z,2.06
2022-12-02T05:38:00.165Z,2.01
2022-12-02T05:40:34.401Z,1.98
2022-12-02T05:43:20.279Z,1.92
2022-12-02T05:45:51.769Z,1.91
2022-12-02T05:48:23.464Z,1.89
2022-12-02T05:50:56.196Z,1.90
2022-12-02T05:53:29.130Z,1.90
2022-12-02T05:56:01.727Z,1.87
2022-12-02T05:58:34.798Z,1.85
2022-12-02T06:01:04.247Z,1.87
2022-12-02T06:03:35.497Z,1.86
2022-12-02T06:06:11.302Z,1.88
2022-12-02T06:08:41.987Z,1.92
2022-12-02T06:11:29.999Z,1.96
2022-12-02T06:14:04.412Z,1.94
2022-12-02T06:16:35.127Z,1.99
2022-12-02T06:19:20.416Z,1.98
2022-12-02T06:22:03.526Z,2.01
2022-12-02T06:24:35.983Z,2.01
2022-12-02T06:27:06.833Z,2.04
2022-12-02T06:29:37.967Z,2.02
2022-12-02T06:32:15.929Z,2.01
2022-12-02T06:34:47.343Z,2.02
2022-12-02T06:37:20.986Z,2.01
2022-12-02T06:40:27.140Z,2.04
2022-12-02T06:42:47.316Z,2.03
2022-12-02T06:45:29.451Z,2.00
2022-12-02T06:48:15.314Z,1.96
2022-12-02T06:50:48.834Z,1.92
2022-12-02T06:53:37.077Z,1.94
2022-12-02T06:56:24.370Z,1.96
2022-12-02T06:58:59.511Z,2.06
2022-12-02T07:01:39.286Z,2.16
2022-12-02T07:04:31.086Z,2.16
2022-12-02T07:07:12.981Z,2.62
2022-12-02T07:09:46.604Z,3.13
2022-12-02T07:12:20.448Z,3.12
2022-12-02T07:14:53.464Z,2.98
2022-12-02T07:17:29.285Z,2.83
2022-12-02T07:20:03.782Z,2.77
2022-12-02T07:22:37.891Z,2.66
2022-12-02T07:25:38.719Z,2.61
2022-12-02T07:28:34.921Z,2.56
2022-12-02T07:31:13.845Z,2.51
2022-12-02T07:33:44.729Z,2.49
2022-12-02T07:36:15.492Z,2.44
2022-12-02T07:41:37.987Z,2.34
2022-12-02T07:44:09.006Z,2.29
2022-12-02T07:46:39.752Z,2.28
2022-12-02T07:49:10.424Z,2.27
2022-12-02T07:51:41.141Z,2.25
2022-12-02T07:54:12.011Z,2.16
2022-12-02T07:56:42.796Z,2.11
2022-12-02T07:59:14.179Z,2.10
2022-12-02T08:01:45.972Z,2.08
2022-12-02T08:04:16.844Z,2.09
2022-12-02T08:06:47.642Z,2.11
2022-12-02T08:09:18.422Z,2.14
2022-12-02T08:11:49.379Z,2.16
2022-12-02T08:14:20.057Z,2.19
2022-12-02T08:16:51.131Z,2.14
2022-12-02T08:19:22.030Z,2.10
2022-12-02T08:21:53.105Z,2.11
2022-12-02T08:24:23.848Z,2.13
2022-12-02T08:26:54.477Z,2.16
2022-12-02T08:29:25.631Z,2.14
2022-12-02T08:31:56.289Z,2.10
2022-12-02T08:34:26.914Z,2.08
2022-12-02T08:36:57.604Z,2.06
2022-12-02T08:39:28.773Z,2.04
2022-12-02T08:41:59.539Z,2.06
2022-12-02T08:44:30.190Z,2.07
2022-12-02T08:47:00.918Z,2.08
2022-12-02T08:49:31.631Z,2.06
2022-12-02T08:52:02.324Z,2.03
2022-12-02T08:54:33.294Z,2.02
2022-12-02T08:57:04.207Z,1.99
2022-12-02T08:59:34.863Z,1.99
2022-12-02T09:02:05.858Z,1.96
2022-12-02T09:04:36.499Z,1.96
2022-12-02T09:07:07.358Z,1.95
2022-12-02T09:09:38.207Z,1.95
2022-12-02T09:12:09.598Z,1.95
2022-12-02T09:14:40.250Z,1.99
2022-12-02T09:17:11.058Z,1.99
2022-12-02T09:19:41.850Z,2.00
2022-12-02T09:22:12.514Z,1.99
2022-12-02T09:24:43.228Z,1.99
2022-12-02T09:27:13.913Z,1.96
2022-12-02T09:29:44.523Z,1.99
2022-12-02T09:32:15.171Z,2.04
2022-12-02T09:34:45.822Z,2.09
2022-12-02T09:37:16.551Z,2.12
2022-12-02T09:39:48.465Z,2.14
2022-12-02T09:42:20.479Z,2.16
2022-12-02T09:44:52.079Z,2.14
2022-12-02T09:47:24.295Z,2.13
2022-12-02T09:49:55.745Z,2.13
2022-12-02T09:52:27.891Z,2.17
2022-12-02T09:55:00.840Z,2.19
2022-12-02T09:57:40.089Z,2.21
2022-12-02T10:00:18.084Z,2.22
2022-12-02T10:02:51.659Z,2.18
2022-12-02T10:05:25.739Z,2.13
2022-12-02T10:07:58.303Z,2.10
2022-12-02T10:10:35.875Z,2.06
2022-12-02T10:13:08.178Z,1.97
2022-12-02T10:15:39.829Z,1.96
2022-12-02T10:18:17.434Z,1.99
2022-12-02T10:20:50.464Z,1.97
2022-12-02T10:23:23.064Z,1.93
2022-12-02T10:25:58.359Z,1.92
2022-12-02T10:28:31.124Z,1.93
2022-12-02T10:31:05.210Z,1.93
2022-12-02T10:33:39.320Z,1.95
2022-12-02T10:36:11.728Z,1.97
2022-12-02T10:38:44.217Z,1.99
2022-12-02T10:41:24.811Z,2.01
2022-12-02T10:44:15.017Z,2.02
2022-12-02T10:46:46.160Z,2.00
2022-12-02T10:49:32.101Z,1.99
2022-12-02T10:52:08.796Z,1.98
2022-12-02T10:54:44.715Z,1.98
2022-12-02T10:57:23.510Z,2.24
2022-12-02T10:59:54.814Z,2.35
2022-12-02T11:02:32.212Z,2.38
2022-12-02T11:05:12.140Z,2.33
2022-12-02T11:07:51.326Z,2.30
2022-12-02T11:10:22.158Z,2.32
2022-12-02T11:13:30.739Z,2.32
2022-12-02T11:16:46.868Z,2.30
2022-12-02T11:19:45.284Z,2.25
2022-12-02T11:22:49.938Z,2.22
2022-12-02T11:25:55.685Z,2.18
2022-12-02T11:28:47.691Z,2.11
2022-12-02T11:31:26.832Z,2.08
2022-12-02T11:34:05.764Z,2.11
2022-12-02T11:36:38.448Z,2.05
2022-12-02T11:39:12.255Z,2.03
2022-12-02T11:42:13.794Z,1.99
2022-12-02T11:44:44.618Z,1.96
2022-12-02T11:47:30.813Z,1.97
2022-12-02T11:50:20.542Z,1.98
2022-12-02T11:52:55.607Z,2.00
2022-12-02T11:55:33.845Z,2.03
2022-12-02T11:58:05.803Z,2.09
2022-12-02T12:00:40.394Z,2.11
2022-12-02T12:03:17.486Z,2.10
2022-12-02T12:06:07.825Z,2.06
2022-12-02T12:08:39.258Z,2.02
2022-12-02T12:11:23.784Z,2.02
2022-12-02T12:14:06.639Z,2.00
2022-12-02T12:16:40.762Z,1.98
2022-12-02T12:19:28.128Z,1.99
2022-12-02T12:22:00.336Z,2.01
2022-12-02T12:24:35.934Z,2.02
2022-12-02T12:27:36.472Z,2.05
2022-12-02T12:30:09.182Z,2.07
2022-12-02T12:32:39.878Z,2.09
2022-12-02T12:35:11.389Z,2.03
2022-12-02T12:37:42.041Z,1.94
2022-12-02T12:40:15.172Z,1.88
2022-12-02T12:42:44.206Z,1.86
2022-12-02T12:45:15.138Z,1.79
2022-12-02T12:47:46.084Z,1.76
2022-12-02T12:50:17.263Z,1.73
2022-12-02T12:52:47.965Z,1.71
2022-12-02T12:55:18.697Z,1.71
2022-12-02T12:57:49.609Z,1.73
2022-12-02T13:00:22.398Z,1.85
2022-12-02T13:02:53.155Z,1.89
2022-12-02T13:05:23.976Z,1.99
2022-12-02T13:07:54.881Z,2.04
2022-12-02T13:10:25.814Z,2.05
2022-12-02T13:12:56.484Z,2.01
2022-12-02T13:15:27.300Z,1.96
2022-12-02T13:17:58.053Z,1.91
2022-12-02T13:20:29.108Z,1.87
2022-12-02T13:23:00.184Z,1.88
2022-12-02T13:25:31.133Z,2.19
2022-12-02T13:28:03.127Z,2.74
2022-12-02T13:30:37.745Z,3.07
2022-12-02T13:33:12.983Z,3.21
2022-12-02T13:35:43.758Z,3.60
2022-12-02T13:38:14.527Z,4.01
2022-12-02T13:40:49.218Z,4.09
2022-12-02T13:43:22.975Z,3.89
2022-12-02T13:45:53.863Z,3.59
2022-12-02T13:48:24.658Z,3.41
2022-12-02T13:50:55.279Z,3.24
2022-12-02T13:53:26.460Z,3.07
2022-12-02T13:55:57.337Z,2.93
2022-12-02T13:58:28.294Z,2.79
2022-12-02T14:00:59.330Z,2.67
2022-12-02T14:03:30.329Z,2.57
2022-12-02T14:06:01.130Z,2.52
2022-12-02T14:08:32.120Z,2.50
2022-12-02T14:11:02.872Z,2.50
2022-12-02T14:13:33.875Z,2.47
2022-12-02T14:16:05.304Z,2.49
2022-12-02T14:18:36.407Z,2.56
2022-12-02T14:21:07.732Z,2.52
2022-12-02T14:23:38.504Z,2.49
2022-12-02T14:26:09.333Z,2.47
2022-12-02T14:28:40.266Z,2.41
2022-12-02T14:31:18.974Z,2.36
2022-12-02T14:34:11.945Z,2.29
2022-12-02T14:36:44.906Z,2.25
2022-12-02T14:39:15.724Z,2.24
2022-12-02T14:41:46.402Z,2.19
2022-12-02T14:44:17.453Z,2.12
2022-12-02T14:46:48.139Z,2.10
2022-12-02T14:52:09.710Z,2.09
2022-12-02T14:54:40.559Z,2.08
2022-12-02T14:57:14.563Z,2.02
2022-12-02T14:59:45.961Z,2.01
2022-12-02T15:02:17.008Z,2.03
2022-12-02T15:04:47.716Z,2.05
2022-12-02T15:07:18.543Z,2.05
2022-12-02T15:09:49.508Z,2.03
2022-12-02T15:12:20.402Z,2.05
2022-12-02T15:14:51.542Z,1.99
2022-12-02T15:17:22.660Z,1.96
2022-12-02T15:19:55.272Z,1.92
2022-12-02T15:22:28.567Z,1.88
2022-12-02T15:24:59.401Z,1.85
2022-12-02T15:27:30.209Z,1.84
2022-12-02T15:30:01.083Z,1.83
2022-12-02T15:32:31.864Z,1.81
2022-12-02T15:35:02.827Z,1.81
2022-12-02T15:37:33.823Z,1.79
2022-12-02T15:40:09.538Z,1.75
2022-12-02T15:42:40.494Z,1.74
2022-12-02T15:45:12.364Z,1.75
2022-12-02T15:47:43.143Z,1.70
2022-12-02T15:50:14.267Z,1.71
2022-12-02T15:52:45.084Z,1.68
2022-12-02T15:55:15.919Z,1.69
2022-12-02T15:57:46.634Z,1.66
2022-12-02T16:00:18.754Z,1.64
2022-12-02T16:02:55.709Z,1.62
2022-12-02T16:05:27.788Z,1.59
2022-12-02T16:07:58.506Z,1.57
2022-12-02T16:10:29.513Z,1.57
2022-12-02T16:13:00.168Z,1.51
2022-12-02T16:15:30.946Z,1.50
2022-12-02T16:18:01.583Z,1.51
2022-12-02T16:20:32.471Z,1.50
2022-12-02T16:23:03.659Z,1.48
2022-12-02T16:25:34.410Z,1.47
2022-12-02T16:28:05.705Z,1.48
2022-12-02T16:30:36.493Z,1.47
2022-12-02T16:33:07.214Z,1.49
2022-12-02T16:35:37.951Z,1.46
2022-12-02T16:38:08.726Z,1.45
2022-12-02T16:40:39.453Z,1.43
2022-12-02T16:43:10.222Z,1.42
2022-12-02T16:45:40.928Z,1.40
2022-12-02T16:48:11.729Z,1.40
2022-12-02T16:50:42.559Z,1.39
2022-12-02T16:53:13.532Z,1.40
2022-12-02T16:55:44.698Z,1.39
2022-12-02T16:58:15.481Z,1.39
2022-12-02T17:00:46.254Z,1.40
2022-12-02T17:03:17.198Z,1.41
2022-12-02T17:05:47.992Z,1.42
2022-12-02T17:08:18.869Z,1.43
2022-12-02T17:10:49.742Z,1.49
2022-12-02T17:13:20.815Z,1.48
2022-12-02T17:15:51.466Z,1.45
2022-12-02T17:18:22.249Z,1.38
2022-12-02T17:20:55.668Z,1.36
2022-12-02T17:23:26.950Z,1.35
2022-12-02T17:25:57.600Z,1.36
2022-12-02T17:28:29.132Z,1.37
2022-12-02T17:30:59.783Z,1.34
2022-12-02T17:33:30.637Z,1.34
2022-12-02T17:36:01.377Z,1.40
2022-12-02T17:38:32.090Z,1.40
2022-12-02T17:41:11.866Z,1.36
2022-12-02T17:43:42.720Z,1.30
2022-12-02T17:46:13.986Z,1.26
2022-12-02T17:48:45.044Z,1.23
2022-12-02T17:51:17.470Z,1.21
2022-12-02T17:53:48.282Z,1.19
2022-12-02T17:56:18.937Z,1.19
2022-12-02T17:58:49.606Z,1.20
2022-12-02T18:01:20.409Z,1.23
2022-12-02T18:03:51.195Z,1.24
2022-12-02T18:06:21.934Z,1.17
2022-12-02T18:08:52.763Z,1.21
2022-12-02T18:11:23.362Z,1.20
2022-12-02T18:13:57.879Z,1.20
2022-12-02T18:16:32.472Z,1.23
2022-12-02T18:19:03.081Z,1.19
2022-12-02T18:21:33.732Z,1.27
2022-12-02T18:24:04.868Z,1.27
2022-12-02T18:26:35.551Z,1.26
2022-12-02T18:29:06.310Z,1.23
2022-12-02T18:31:36.967Z,1.20
2022-12-02T18:34:07.687Z,1.18
2022-12-02T18:36:38.430Z,1.12
2022-12-02T18:39:09.271Z,1.05
2022-12-02T18:41:39.924Z,1.00
2022-12-02T18:44:10.648Z,0.99
2022-12-02T18:46:41.540Z,1.02
2022-12-02T18:49:12.236Z,1.06
2022-12-02T18:51:43.026Z,1.06
2022-12-02T18:54:13.638Z,1.06
2022-12-02T18:56:44.285Z,1.08
2022-12-02T18:59:14.990Z,1.12
2022-12-02T19:01:45.742Z,1.14
2022-12-02T19:04:16.574Z,1.13
2022-12-02T19:06:47.219Z,1.15
2022-12-02T19:09:17.958Z,1.18
2022-12-02T19:11:48.664Z,1.16
2022-12-02T19:14:19.510Z,1.14
2022-12-02T19:16:50.216Z,1.15
2022-12-02T19:19:20.859Z,1.07
2022-12-02T19:21:51.962Z,1.06
2022-12-02T19:24:22.708Z,1.01
2022-12-02T19:26:53.375Z,0.98
2022-12-02T19:29:24.037Z,1.00
2022-12-02T19:31:54.832Z,1.00
2022-12-02T19:34:25.761Z,1.00
2022-12-02T19:36:56.443Z,0.99
2022-12-02T19:39:27.107Z,0.97
2022-12-02T19:41:58.040Z,1.00
2022-12-02T19:44:28.642Z,1.02
2022-12-02T19:46:59.340Z,1.05
2022-12-02T19:49:29.968Z,1.06
2022-12-02T19:52:00.642Z,1.07
2022-12-02T19:54:31.324Z,1.05
2022-12-02T19:57:01.983Z,1.05
2022-12-02T19:59:32.612Z,1.05
2022-12-02T20:02:05.488Z,1.07
2022-12-02T20:04:43.403Z,1.08
2022-12-02T20:07:14.238Z,1.07
2022-12-02T20:09:44.967Z,1.08
2022-12-02T20:12:15.697Z,1.09
2022-12-02T20:14:46.520Z,1.11
2022-12-02T20:17:17.251Z,1.13
2022-12-02T20:19:48.006Z,1.13
2022-12-02T20:22:18.761Z,1.09
2022-12-02T20:24:49.712Z,1.08
2022-12-02T20:27:20.612Z,1.07
2022-12-02T20:29:51.465Z,1.06
2022-12-02T20:32:22.091Z,1.04
2022-12-02T20:34:53.004Z,1.04
2022-12-02T20:37:23.986Z,1.05
2022-12-02T20:39:54.642Z,1.04
2022-12-02T20:42:25.279Z,1.06
2022-12-02T20:44:56.549Z,1.09
2022-12-02T20:47:27.510Z,1.04
2022-12-02T20:49:58.258Z,1.08
2022-12-02T20:52:29.114Z,1.07
2022-12-02T20:54:59.911Z,1.09
2022-12-02T20:57:30.579Z,1.12
2022-12-02T21:00:01.378Z,1.14
2022-12-02T21:02:32.127Z,1.13
2022-12-02T21:05:03.151Z,1.12
2022-12-02T21:07:38.513Z,1.09
2022-12-02T21:10:11.743Z,1.09
2022-12-02T21:12:43.475Z,1.11
2022-12-02T21:15:17.324Z,1.15
2022-12-02T21:17:47.999Z,1.18
2022-12-02T21:20:20.356Z,1.21
2022-12-02T21:22:50.985Z,1.23
2022-12-02T21:25:24.099Z,1.22
2022-12-02T21:27:54.814Z,1.29
2022-12-02T21:30:25.711Z,1.54
2022-12-02T21:32:56.486Z,1.52
2022-12-02T21:35:27.127Z,1.44
2022-12-02T21:37:58.636Z,1.40
2022-12-02T21:40:31.185Z,1.39
2022-12-02T21:43:01.928Z,1.29
2022-12-02T21:45:32.716Z,1.27
2022-12-02T21:48:03.488Z,1.24
